Time;durP1;ratioP1;P1;durP2;ratioP2;P2;SDS_P1;SDS_P2;PMS_P1;PMS_P2;Temp;Humidity;BMP_temperature;BMP_pressure;BME280_temperature;BME280_humidity;BME280_pressure;Samples;Min_cycle;Max_cycle;Signal;HPM_P1;HPM_P2
2022/07/25 00:01:25;;;;;;;10.55;7.00;;;;;;;22.04;69.49;100842.75;5027380;28;20700;-73
2022/07/25 00:03:50;;;;;;;9.57;6.85;;;;;;;22.05;69.23;100847.81;5029802;28;20048;-73
2022/07/25 00:06:16;;;;;;;11.43;7.30;;;;;;;22.05;69.71;100849.66;5040313;28;20044;-72
2022/07/25 00:08:41;;;;;;;13.55;7.90;;;;;;;22.03;69.68;100841.97;5023788;28;20029;-73
2022/07/25 00:11:07;;;;;;;11.95;7.68;;;;;;;21.99;70.04;100845.31;5045163;28;20039;-72
2022/07/25 00:13:32;;;;;;;10.30;7.50;;;;;;;21.94;69.96;100844.16;5061957;28;20044;-74
2022/07/25 00:15:58;;;;;;;11.52;6.95;;;;;;;21.87;70.14;100832.09;5044722;28;20473;-73
2022/07/25 00:18:23;;;;;;;14.60;7.20;;;;;;;21.80;70.68;100826.16;5043748;28;20028;-73
2022/07/25 00:20:49;;;;;;;11.57;7.80;;;;;;;21.75;70.94;100826.81;5059661;28;20028;-73
2022/07/25 00:23:15;;;;;;;10.43;7.10;;;;;;;21.75;70.78;100824.19;5039588;28;20697;-73
2022/07/25 00:25:40;;;;;;;11.35;7.68;;;;;;;21.78;70.50;100829.00;5059290;28;20024;-72
2022/07/25 00:28:06;;;;;;;11.05;6.93;;;;;;;21.78;70.32;100832.44;5057038;28;20097;-73
2022/07/25 00:30:31;;;;;;;10.98;7.03;;;;;;;21.78;70.51;100826.38;5058122;28;20544;-73
2022/07/25 00:32:57;;;;;;;12.02;7.05;;;;;;;21.77;70.36;100820.31;5057177;28;20028;-73
2022/07/25 00:35:22;;;;;;;11.20;7.38;;;;;;;21.77;70.63;100822.94;5059224;28;20047;-74
2022/07/25 00:37:48;;;;;;;12.20;7.85;;;;;;;21.71;70.90;100828.31;5059336;28;20024;-73
2022/07/25 00:40:13;;;;;;;11.65;7.53;;;;;;;21.66;71.16;100820.28;5058095;28;20024;-73
2022/07/25 00:42:40;;;;;;;10.48;7.43;;;;;;;21.63;70.74;100826.81;5041674;28;20504;-72
2022/07/25 00:45:06;;;;;;;11.73;7.72;;;;;;;21.64;70.83;100824.97;5040949;28;20612;-73
2022/07/25 00:47:31;;;;;;;9.05;7.10;;;;;;;21.65;70.47;100824.75;5057940;28;20051;-72
2022/07/25 00:49:57;;;;;;;10.07;7.50;;;;;;;21.66;70.61;100823.75;5057758;28;21524;-73
2022/07/25 00:52:23;;;;;;;10.40;7.10;;;;;;;21.64;70.83;100824.97;5040482;28;20033;-73
2022/07/25 00:54:49;;;;;;;10.82;7.68;;;;;;;21.59;70.94;100820.41;5040074;28;20489;-73
2022/07/25 00:57:15;;;;;;;10.40;7.57;;;;;;;21.54;71.27;100822.91;5058355;28;20523;-73
2022/07/25 00:59:40;;;;;;;14.32;7.57;;;;;;;21.49;71.56;100823.63;5055664;28;20028;-73
2022/07/25 01:02:06;;;;;;;9.93;7.32;;;;;;;21.45;71.69;100824.28;5043424;28;20505;-73
2022/07/25 01:04:32;;;;;;;9.93;7.25;;;;;;;21.39;71.97;100821.47;5059793;28;20511;-73
2022/07/25 01:06:59;;;;;;;9.75;7.13;;;;;;;21.31;72.38;100821.81;5060956;28;20554;-73
2022/07/25 01:09:25;;;;;;;17.58;7.93;;;;;;;21.23;72.56;100818.69;5040968;28;20043;-73
2022/07/25 01:11:51;;;;;;;9.25;7.10;;;;;;;21.11;73.11;100814.22;5058780;28;20039;-73
2022/07/25 01:14:16;;;;;;;9.68;6.85;;;;;;;20.98;73.49;100809.13;5040933;28;20036;-73
2022/07/25 01:16:42;;;;;;;13.13;7.45;;;;;;;20.86;73.63;100811.72;5040884;28;20111;-73
2022/07/25 01:19:07;;;;;;;14.18;7.97;;;;;;;20.84;73.73;100805.88;5043499;28;20482;-73
2022/07/25 01:21:37;;;;;;;13.80;7.72;;;;;;;20.87;73.40;100807.25;5058441;28;20071;-72
2022/07/25 01:24:02;;;;;;;14.10;7.93;;;;;;;20.90;72.79;100799.72;5060646;28;20075;-73
2022/07/25 01:26:29;;;;;;;12.85;7.35;;;;;;;20.93;72.88;100796.63;5040130;28;20029;-73
2022/07/25 01:28:55;;;;;;;12.43;7.70;;;;;;;20.96;72.42;100800.66;5059337;28;20024;-73
2022/07/25 01:31:21;;;;;;;13.00;7.40;;;;;;;20.95;72.75;100799.84;5041821;28;20076;-73
2022/07/25 01:33:47;;;;;;;12.43;7.45;;;;;;;20.88;72.92;100793.88;5035132;28;20056;-73
2022/07/25 01:36:12;;;;;;;12.00;7.25;;;;;;;20.78;73.36;100793.63;5041884;28;20582;-73
2022/07/25 01:38:38;;;;;;;14.43;7.20;;;;;;;20.69;73.81;100787.06;5042234;28;20113;-73
2022/07/25 01:41:04;;;;;;;11.95;7.47;;;;;;;20.71;73.52;100793.69;5057898;28;20684;-73
2022/07/25 01:43:29;;;;;;;9.48;7.35;;;;;;;20.74;73.04;100792.47;5057716;28;20029;-73
2022/07/25 01:45:55;;;;;;;11.13;6.78;;;;;;;20.76;72.82;100790.41;5038251;28;20581;-73
2022/07/25 01:48:20;;;;;;;11.18;6.80;;;;;;;20.76;72.77;100780.66;5025062;28;20423;-73
2022/07/25 01:50:46;;;;;;;9.00;7.45;;;;;;;20.78;72.57;100789.13;5024234;28;20031;-73
2022/07/25 01:53:11;;;;;;;11.52;6.78;;;;;;;20.73;73.18;100780.31;5057755;28;20074;-73
2022/07/25 01:55:36;;;;;;;13.77;7.25;;;;;;;20.62;73.85;100784.50;5058510;28;20052;-73
2022/07/25 01:58:02;;;;;;;9.95;7.28;;;;;;;20.49;74.37;100776.72;5058775;28;20049;-73
2022/07/25 02:00:27;;;;;;;11.25;6.80;;;;;;;20.42;74.65;100772.34;5027575;28;20039;-71
2022/07/25 02:03:28;;;;;;;9.27;6.80;;;;;;;20.40;74.65;100774.41;5057560;28;20111;-73
2022/07/25 02:05:38;;;;;;;13.43;7.57;;;;;;;20.41;74.26;100778.63;5057214;28;20036;-73
2022/07/25 02:08:04;;;;;;;12.43;7.82;;;;;;;20.44;74.22;100772.13;5056716;28;20039;-72
2022/07/25 02:10:30;;;;;;;12.02;7.63;;;;;;;20.47;73.87;100774.31;5057979;28;20043;-73
2022/07/25 02:12:56;;;;;;;12.50;6.72;;;;;;;20.49;73.69;100766.19;5064361;28;20028;-74
2022/07/25 02:15:21;;;;;;;12.18;6.72;;;;;;;20.41;74.15;100762.84;5058470;28;20036;-73
2022/07/25 02:17:47;;;;;;;10.48;7.28;;;;;;;20.33;74.71;100762.34;5038858;28;20122;-73
2022/07/25 02:20:12;;;;;;;12.68;7.32;;;;;;;20.26;74.99;100756.34;5056970;28;20052;-73
2022/07/25 02:22:38;;;;;;;13.48;7.28;;;;;;;20.25;74.80;100760.84;5039310;28;20098;-73
2022/07/25 02:25:04;;;;;;;10.27;6.90;;;;;;;20.26;74.81;100751.91;5040470;28;20098;-73
2022/07/25 02:27:29;;;;;;;11.23;7.25;;;;;;;20.26;74.59;100746.63;5056051;28;20045;-72
2022/07/25 02:29:54;;;;;;;8.90;7.10;;;;;;;20.23;74.48;100753.16;5059047;28;20123;-73
2022/07/25 02:32:20;;;;;;;10.40;7.05;;;;;;;20.16;75.12;100749.78;5022049;28;20039;-73
2022/07/25 02:34:45;;;;;;;16.08;7.00;;;;;;;20.09;75.65;100740.38;5057812;28;20485;-73
2022/07/25 02:37:11;;;;;;;10.00;6.75;;;;;;;20.03;75.81;100742.03;5055524;28;20693;-73
2022/07/25 02:39:37;;;;;;;11.15;6.85;;;;;;;20.02;76.03;100740.44;5057790;28;20060;-73
2022/07/25 02:42:03;;;;;;;13.45;7.35;;;;;;;20.01;75.95;100733.56;5021268;28;20198;-73
2022/07/25 02:44:28;;;;;;;14.32;7.43;;;;;;;20.00;75.79;100739.84;5056942;28;20032;-72
2022/07/25 02:46:54;;;;;;;14.60;7.70;;;;;;;19.99;76.16;100731.16;5043889;28;20033;-73
2022/07/25 02:49:19;;;;;;;11.02;7.55;;;;;;;19.94;76.19;100730.19;5025893;28;20040;-73
2022/07/25 02:51:45;;;;;;;18.05;8.80;;;;;;;19.94;76.16;100725.75;5044789;28;20033;-72
2022/07/25 02:54:11;;;;;;;21.33;7.88;;;;;;;19.92;76.17;100717.25;5060335;28;20571;-72
2022/07/25 02:56:36;;;;;;;10.52;7.40;;;;;;;19.87;76.38;100717.09;5053562;28;20044;-73
2022/07/25 02:59:02;;;;;;;15.57;7.53;;;;;;;19.86;76.31;100715.50;5057311;28;20054;-73
2022/07/25 03:01:28;;;;;;;19.15;7.47;;;;;;;19.80;76.68;100714.56;5029652;28;20045;-72
2022/07/25 03:03:54;;;;;;;14.32;6.63;;;;;;;19.80;76.76;100714.56;5061387;28;20486;-73
2022/07/25 03:06:19;;;;;;;14.85;7.63;;;;;;;19.79;76.76;100704.25;5059023;28;20056;-73
2022/07/25 03:08:45;;;;;;;11.30;7.65;;;;;;;19.78;76.62;100706.09;5045299;28;20033;-73
2022/07/25 03:11:11;;;;;;;14.05;6.78;;;;;;;19.74;76.87;100704.09;5025335;28;20044;-73
2022/07/25 03:13:37;;;;;;;15.32;7.32;;;;;;;19.78;76.58;100706.09;5042717;28;20516;-72
2022/07/25 03:16:02;;;;;;;11.23;6.90;;;;;;;19.70;77.03;100702.91;5057578;28;20036;-73
2022/07/25 03:18:28;;;;;;;10.18;6.38;;;;;;;19.64;77.15;100694.84;5060105;28;20090;-73
2022/07/25 03:20:53;;;;;;;11.98;7.78;;;;;;;19.58;77.52;100687.84;5058391;28;20039;-73
2022/07/25 03:23:19;;;;;;;13.10;7.85;;;;;;;19.52;77.74;100686.09;5025699;28;20347;-73
2022/07/25 03:25:44;;;;;;;10.50;6.65;;;;;;;19.49;77.88;100685.72;5039464;28;20044;-73
2022/07/25 03:28:09;;;;;;;9.23;6.80;;;;;;;19.44;77.80;100681.94;5041006;28;20035;-73
2022/07/25 03:30:35;;;;;;;8.50;5.80;;;;;;;19.42;77.97;100683.16;5060558;28;20609;-73
2022/07/25 03:33:00;;;;;;;10.45;6.78;;;;;;;19.40;77.81;100677.31;5042824;28;20040;-73
2022/07/25 03:35:26;;;;;;;11.90;6.20;;;;;;;19.40;77.74;100679.94;5042054;28;20040;-73
2022/07/25 03:37:52;;;;;;;8.60;6.03;;;;;;;19.38;77.80;100681.97;5057983;28;20765;-72
2022/07/25 03:40:17;;;;;;;9.80;6.78;;;;;;;19.36;77.79;100684.03;5044000;28;20111;-73
2022/07/25 03:42:43;;;;;;;9.98;6.80;;;;;;;19.39;77.23;100678.34;5041000;28;20044;-73
2022/07/25 03:45:09;;;;;;;12.88;7.03;;;;;;;19.37;77.42;100675.94;5059347;28;20085;-73
2022/07/25 03:47:34;;;;;;;11.35;7.18;;;;;;;19.46;76.73;100686.97;5061304;28;20066;-73
2022/07/25 03:50:00;;;;;;;11.40;7.18;;;;;;;19.44;76.56;100673.25;5042183;28;20020;-73
2022/07/25 03:52:25;;;;;;;10.65;6.63;;;;;;;19.39;77.07;100675.72;5039565;28;20093;-73
2022/07/25 03:54:51;;;;;;;11.05;7.00;;;;;;;19.35;77.27;100680.59;5042842;28;20029;-73
2022/07/25 03:57:16;;;;;;;10.27;6.40;;;;;;;19.29;77.59;100675.38;5056753;28;20027;-73
2022/07/25 03:59:41;;;;;;;12.07;6.88;;;;;;;19.32;77.30;100669.72;5043451;28;20044;-73
2022/07/25 04:02:07;;;;;;;13.52;6.80;;;;;;;19.34;76.98;100665.03;5058026;28;20097;-73
2022/07/25 04:04:32;;;;;;;15.60;7.47;;;;;;;19.33;76.91;100659.00;5058392;28;20211;-73
2022/07/25 04:06:58;;;;;;;12.80;7.40;;;;;;;19.37;76.57;100654.09;5040154;28;20037;-73
2022/07/25 04:09:23;;;;;;;10.52;6.78;;;;;;;19.32;76.97;100656.56;5060250;28;20036;-73
2022/07/25 04:11:49;;;;;;;10.23;7.03;;;;;;;19.26;77.46;100661.66;5039247;28;20035;-72
2022/07/25 04:14:14;;;;;;;12.32;6.95;;;;;;;19.30;76.96;100659.41;5056548;28;20032;-74
2022/07/25 04:16:41;;;;;;;12.73;7.20;;;;;;;19.30;76.83;100666.50;5059497;28;20560;-73
2022/07/25 04:19:06;;;;;;;8.18;6.40;;;;;;;19.37;76.57;100659.34;5060100;28;20032;-72
2022/07/25 04:21:32;;;;;;;12.90;7.75;;;;;;;19.37;76.80;100665.41;5059105;28;20070;-73
2022/07/25 04:23:58;;;;;;;12.40;6.47;;;;;;;19.37;76.76;100656.72;5060554;28;20121;-73
2022/07/25 04:26:24;;;;;;;9.57;6.82;;;;;;;19.40;76.43;100656.28;5061037;28;20042;-74
2022/07/25 04:28:49;;;;;;;12.25;7.25;;;;;;;19.39;76.44;100650.22;5048963;28;20377;-73
2022/07/25 04:31:15;;;;;;;11.65;6.95;;;;;;;19.46;75.39;100644.91;5056629;28;20032;-73
2022/07/25 04:33:40;;;;;;;9.43;7.22;;;;;;;19.55;74.82;100634.88;5060611;28;20043;-72
2022/07/25 04:36:06;;;;;;;10.27;6.60;;;;;;;19.63;74.14;100640.66;5061327;28;20079;-70
2022/07/25 04:38:32;;;;;;;11.50;7.15;;;;;;;19.63;73.85;100637.25;5039456;28;20032;-71
2022/07/25 04:40:57;;;;;;;11.68;6.70;;;;;;;19.68;73.66;100633.94;5059058;28;20024;-75
2022/07/25 04:43:23;;;;;;;10.82;6.70;;;;;;;19.66;73.80;100626.25;5021775;28;20040;-71
2022/07/25 04:45:48;;;;;;;12.05;6.78;;;;;;;19.65;73.39;100624.69;5044267;28;20497;-74
2022/07/25 04:48:14;;;;;;;10.45;6.47;;;;;;;19.65;73.47;100624.69;5059352;28;20023;-73
2022/07/25 04:50:39;;;;;;;11.00;6.88;;;;;;;19.67;73.59;100624.47;5042436;28;20123;-73
2022/07/25 04:53:05;;;;;;;9.40;6.38;;;;;;;19.70;73.81;100616.91;5039527;28;20029;-72
2022/07/25 04:55:35;;;;;;;10.55;6.70;;;;;;;19.75;73.46;100624.97;5059857;28;20082;-73
2022/07/25 04:58:00;;;;;;;9.23;6.30;;;;;;;19.73;72.87;100616.50;5059111;28;20039;-73
2022/07/25 05:00:26;;;;;;;9.35;6.20;;;;;;;19.77;73.80;100624.75;5040396;28;21761;-73
2022/07/25 05:02:51;;;;;;;12.90;6.40;;;;;;;19.90;72.94;100618.53;5056857;28;20492;-74
2022/07/25 05:05:18;;;;;;;10.05;6.15;;;;;;;19.89;73.61;100617.75;5060030;28;20047;-73
2022/07/25 05:07:44;;;;;;;10.30;6.22;;;;;;;19.89;73.67;100615.13;5042453;28;20037;-73
2022/07/25 05:10:09;;;;;;;13.05;6.25;;;;;;;19.92;73.72;100619.91;5058125;28;20048;-72
2022/07/25 05:12:35;;;;;;;10.75;6.93;;;;;;;19.97;72.81;100614.00;5059178;28;20036;-73
2022/07/25 05:15:01;;;;;;;10.32;6.05;;;;;;;19.97;72.33;100608.75;5043112;28;20492;-72
2022/07/25 05:17:27;;;;;;;10.98;6.38;;;;;;;20.05;72.09;100605.78;5041603;28;20056;-72
2022/07/25 05:19:52;;;;;;;8.75;6.15;;;;;;;20.05;72.45;100605.00;5027906;28;20121;-73
2022/07/25 05:22:18;;;;;;;12.38;7.15;;;;;;;20.08;72.17;100607.97;5060779;28;20033;-73
2022/07/25 05:24:44;;;;;;;15.20;7.05;;;;;;;20.11;72.25;100611.97;5038255;28;20503;-73
2022/07/25 05:27:09;;;;;;;12.18;6.70;;;;;;;20.12;72.46;100603.06;5045095;28;20389;-73
2022/07/25 05:29:34;;;;;;;8.15;6.15;;;;;;;20.22;71.60;100605.97;5040691;28;20036;-73
2022/07/25 05:32:00;;;;;;;8.50;6.28;;;;;;;20.25;71.41;100608.16;5062137;28;20039;-74
2022/07/25 05:34:25;;;;;;;8.80;5.85;;;;;;;20.29;71.35;100606.66;5024132;28;20025;-73
2022/07/25 05:36:51;;;;;;;9.32;6.68;;;;;;;20.32;71.38;100603.56;5059094;28;20037;-74
2022/07/25 05:39:16;;;;;;;10.63;6.72;;;;;;;20.40;70.47;100611.16;5023951;28;20051;-74
2022/07/25 05:41:42;;;;;;;12.00;6.78;;;;;;;20.46;70.31;100604.19;5042585;28;20044;-74
2022/07/25 05:44:08;;;;;;;13.18;6.28;;;;;;;20.54;70.10;100603.06;5041205;28;20033;-74
2022/07/25 05:46:34;;;;;;;8.32;5.93;;;;;;;20.66;69.24;100587.28;5059725;28;20446;-72
2022/07/25 05:48:59;;;;;;;13.48;6.28;;;;;;;20.76;68.83;100585.69;5060533;28;20037;-74
2022/07/25 05:51:25;;;;;;;9.73;6.50;;;;;;;20.83;68.99;100588.22;5040270;28;20504;-73
2022/07/25 05:53:50;;;;;;;11.43;5.85;;;;;;;20.86;68.79;100585.13;5043427;28;20028;-74
2022/07/25 05:56:16;;;;;;;9.82;6.35;;;;;;;21.03;68.36;100585.22;5045188;28;20653;-73
2022/07/25 05:58:41;;;;;;;14.75;6.80;;;;;;;21.10;67.97;100585.13;5046927;28;20039;-74
2022/07/25 06:01:10;;;;;;;14.70;6.53;;;;;;;21.40;67.07;100584.97;5041210;28;20037;-74
2022/07/25 06:03:36;;;;;;;8.73;6.28;;;;;;;21.71;66.32;100585.59;5059288;28;20032;-74
2022/07/25 06:06:01;;;;;;;9.60;6.28;;;;;;;21.87;65.99;100581.38;5042379;28;20048;-72
2022/07/25 06:08:29;;;;;;;10.07;6.30;;;;;;;22.14;64.29;100573.69;5039267;28;20056;-74
2022/07/25 06:10:57;;;;;;;10.77;6.68;;;;;;;22.15;63.98;100573.47;5037362;28;20040;-73
2022/07/25 06:13:22;;;;;;;13.95;7.15;;;;;;;22.28;63.90;100574.19;5059108;28;20032;-73
2022/07/25 06:15:48;;;;;;;10.93;6.07;;;;;;;22.44;63.04;100568.13;5057417;28;20055;-72
2022/07/25 06:18:13;;;;;;;10.05;5.65;;;;;;;22.67;62.42;100574.28;5058630;28;20032;-72
2022/07/25 06:20:39;;;;;;;11.23;6.75;;;;;;;22.76;62.02;100572.84;5046046;28;20032;-72
2022/07/25 06:23:04;;;;;;;12.25;6.28;;;;;;;22.96;61.56;100572.31;5061884;28;20037;-73
2022/07/25 06:25:30;;;;;;;14.90;5.78;;;;;;;22.99;61.77;100576.31;5045795;28;20043;-73
2022/07/25 06:27:55;;;;;;;15.88;6.35;;;;;;;22.89;61.45;100574.34;5044758;28;20385;-74
2022/07/25 06:30:21;;;;;;;15.13;6.97;;;;;;;22.86;62.20;100575.63;5067805;28;20109;-74
2022/07/25 06:32:48;;;;;;;11.93;6.05;;;;;;;22.86;62.01;100572.97;5043761;28;20048;-71
2022/07/25 06:35:13;;;;;;;12.38;6.63;;;;;;;23.03;61.67;100572.97;5047157;28;20033;-73
2022/07/25 06:37:39;;;;;;;9.20;5.75;;;;;;;23.50;60.74;100569.84;5032618;28;20386;-74
2022/07/25 06:40:05;;;;;;;9.32;5.80;;;;;;;23.77;60.14;100577.03;5065601;28;20032;-74
2022/07/25 06:42:32;;;;;;;9.25;6.50;;;;;;;23.80;60.54;100581.03;5048280;28;20171;-74
2022/07/25 06:44:57;;;;;;;10.60;5.80;;;;;;;23.89;59.65;100577.69;5043118;28;20404;-74
2022/07/25 06:47:23;;;;;;;10.15;5.55;;;;;;;24.24;59.26;100589.69;5046014;28;20040;-74
2022/07/25 06:49:48;;;;;;;10.77;7.38;;;;;;;24.56;59.89;100580.13;5042476;28;20093;-74
2022/07/25 06:52:14;;;;;;;12.15;6.25;;;;;;;24.72;58.55;100589.00;5047089;28;20044;-74
2022/07/25 06:54:40;;;;;;;11.13;6.13;;;;;;;24.80;57.55;100572.59;5063545;28;20043;-75
2022/07/25 06:57:05;;;;;;;10.73;5.80;;;;;;;24.95;57.29;100572.69;5067344;28;20028;-74
2022/07/25 06:59:32;;;;;;;6.95;5.72;;;;;;;25.05;57.01;100575.41;5046545;28;20037;-74
2022/07/25 07:01:57;;;;;;;9.02;5.20;;;;;;;25.07;56.97;100572.47;5046780;28;20106;-74
2022/07/25 07:04:23;;;;;;;10.73;5.35;;;;;;;25.33;56.38;100583.22;5071036;28;20032;-74
2022/07/25 07:06:48;;;;;;;7.75;5.32;;;;;;;25.67;56.04;100575.63;5068296;28;20047;-74
2022/07/25 07:09:14;;;;;;;10.32;5.10;;;;;;;25.67;54.68;100578.28;5046540;28;20035;-74
2022/07/25 07:11:39;;;;;;;9.38;5.63;;;;;;;25.62;55.05;100575.63;5042256;28;20397;-74
2022/07/25 07:14:05;;;;;;;8.30;5.20;;;;;;;25.53;55.58;100571.91;5068579;28;20509;-75
2022/07/25 07:16:30;;;;;;;15.40;5.72;;;;;;;25.49;55.93;100562.88;5043221;28;20031;-74
2022/07/25 07:18:57;;;;;;;8.98;5.05;;;;;;;25.53;55.91;100558.63;5032203;28;20036;-73
2022/07/25 07:21:23;;;;;;;11.10;4.97;;;;;;;25.67;53.53;100557.03;5063000;28;20093;-74
2022/07/25 07:23:49;;;;;;;7.68;5.15;;;;;;;25.76;52.46;100560.78;5044326;28;20082;-72
2022/07/25 07:26:15;;;;;;;7.03;4.75;;;;;;;25.99;51.61;100556.88;5041418;28;20474;-73
2022/07/25 07:28:40;;;;;;;8.63;4.53;;;;;;;25.98;51.10;100573.06;5029739;28;20473;-74
2022/07/25 07:31:06;;;;;;;7.88;5.50;;;;;;;25.84;51.71;100578.88;5046650;28;20028;-73
2022/07/25 07:33:32;;;;;;;12.52;5.85;;;;;;;25.68;52.84;100579.09;5065389;28;20043;-75
2022/07/25 07:35:58;;;;;;;7.90;5.20;;;;;;;25.63;52.48;100582.53;5061086;28;20028;-74
2022/07/25 07:38:24;;;;;;;6.40;4.20;;;;;;;25.71;53.12;100578.56;5041997;28;20028;-74
2022/07/25 07:40:51;;;;;;;10.02;4.63;;;;;;;25.74;51.38;100584.16;5063303;28;20028;-73
2022/07/25 07:43:16;;;;;;;9.63;5.78;;;;;;;25.42;51.85;100582.47;5065588;28;20028;-74
2022/07/25 07:45:42;;;;;;;6.45;4.40;;;;;;;25.56;51.94;100584.63;5048138;28;20085;-73
2022/07/25 07:48:08;;;;;;;7.57;4.65;;;;;;;25.60;50.50;100591.03;5062154;28;20048;-72
2022/07/25 07:50:33;;;;;;;6.43;4.72;;;;;;;25.60;50.78;100588.38;5045338;28;20044;-72
2022/07/25 07:52:59;;;;;;;9.75;4.85;;;;;;;25.47;51.28;100597.63;5063050;28;20029;-73
2022/07/25 07:58:29;;;;;;;6.20;4.75;;;;;;;25.55;51.03;100591.78;4983592;28;20076;-71
2022/07/25 08:00:54;;;;;;;6.75;4.68;;;;;;;25.54;51.54;100589.41;5000813;28;20507;-72
2022/07/25 08:03:20;;;;;;;10.23;5.07;;;;;;;25.63;50.87;100585.97;5011892;28;20044;-72
2022/07/25 08:05:47;;;;;;;7.18;4.70;;;;;;;25.64;52.84;100582.28;5045106;28;20724;-73
2022/07/25 08:08:14;;;;;;;6.53;4.50;;;;;;;25.50;52.29;100593.63;5044717;28;20036;-76
2022/07/25 08:10:44;;;;;;;8.85;4.75;;;;;;;25.52;52.66;100592.31;5061316;28;20029;-71
2022/07/25 08:13:17;;;;;;;10.60;5.47;;;;;;;25.44;52.45;100584.84;5061171;28;20094;-75
2022/07/25 08:15:43;;;;;;;;;;;;;;;25.35;53.11;100583.75;5063497;28;20509;-74
2022/07/25 08:18:09;;;;;;;9.23;4.65;;;;;;;25.11;53.68;100583.34;5041905;28;19990;-73
2022/07/25 08:20:34;;;;;;;12.13;5.03;;;;;;;25.10;53.74;100585.22;5060901;28;20502;-72
2022/07/25 08:23:00;;;;;;;7.53;4.90;;;;;;;25.11;54.41;100597.44;5030485;28;20055;-73
2022/07/25 08:25:26;;;;;;;6.75;4.78;;;;;;;25.11;53.85;100592.13;5061796;28;20036;-73
2022/07/25 08:27:52;;;;;;;8.45;5.13;;;;;;;25.11;54.82;100600.09;5060880;28;20036;-73
2022/07/25 08:30:18;;;;;;;8.38;5.25;;;;;;;25.29;53.65;100606.03;5058040;28;20490;-72
2022/07/25 08:32:55;;;;;;;7.00;4.70;;;;;;;25.19;54.09;100612.06;5045034;28;20052;-73
2022/07/25 08:35:21;;;;;;;8.95;5.10;;;;;;;25.34;53.92;100609.50;5027296;28;20032;-72
2022/07/25 08:37:47;;;;;;;6.75;5.38;;;;;;;25.57;53.25;100602.94;5059630;28;20032;-72
2022/07/25 08:40:14;;;;;;;8.68;5.25;;;;;;;25.72;52.81;100612.03;5040025;28;20028;-73
2022/07/25 08:42:39;;;;;;;9.27;5.30;;;;;;;26.20;51.95;100602.03;5025728;28;20379;-73
2022/07/25 08:45:07;;;;;;;10.30;5.70;;;;;;;26.76;50.43;100593.25;5061979;28;20031;-72
2022/07/25 08:47:34;;;;;;;12.05;5.30;;;;;;;27.43;49.62;100590.41;5057330;28;20048;-73
2022/07/25 08:50:04;;;;;;;6.25;4.88;;;;;;;27.67;47.89;100590.53;5064298;28;20024;-73
2022/07/25 08:52:33;;;;;;;10.40;4.90;;;;;;;27.99;47.37;100592.75;5060794;28;20119;-73
2022/07/25 08:55:01;;;;;;;8.02;4.63;;;;;;;28.69;45.75;100587.09;5061626;28;20555;-73
2022/07/25 08:57:26;;;;;;;5.75;4.30;;;;;;;29.07;44.13;100589.88;5060172;28;20071;-74
2022/07/25 08:59:52;;;;;;;6.60;3.88;;;;;;;29.25;42.83;100595.56;5043751;28;20097;-74
2022/07/25 09:02:17;;;;;;;9.13;3.70;;;;;;;29.47;41.84;100595.03;5045171;28;20040;-73
2022/07/25 09:04:43;;;;;;;5.85;3.65;;;;;;;29.12;42.82;100597.03;5066838;28;20032;-71
2022/07/25 09:07:08;;;;;;;8.25;4.07;;;;;;;29.61;42.27;100585.22;5041764;28;20040;-73
2022/07/25 09:09:37;;;;;;;7.28;3.50;;;;;;;29.59;42.49;100584.72;5037438;28;20626;-73
2022/07/25 09:12:04;;;;;;;6.53;3.50;;;;;;;29.09;41.78;100597.59;5046716;28;20024;-71
2022/07/25 09:14:38;;;;;;;14.70;3.92;;;;;;;29.33;40.78;100608.31;5041044;28;20097;-72
2022/07/25 09:17:05;;;;;;;5.45;3.85;;;;;;;29.16;40.39;100603.44;5054215;28;20051;-73
2022/07/25 09:19:31;;;;;;;7.72;3.17;;;;;;;28.67;40.50;100607.13;5063435;28;20033;-72
2022/07/25 09:22:01;;;;;;;4.57;3.03;;;;;;;28.40;41.85;100612.94;5063192;28;20040;-73
2022/07/25 09:24:27;;;;;;;5.70;3.25;;;;;;;28.20;42.23;100617.38;5040613;28;20046;-73
2022/07/25 09:26:56;;;;;;;7.75;3.25;;;;;;;28.30;42.87;100624.50;5058469;28;20032;-73
2022/07/25 09:29:28;;;;;;;7.85;3.38;;;;;;;27.95;42.56;100626.34;5064297;28;20059;-74
2022/07/25 09:31:54;;;;;;;;;;;;;;;27.67;42.52;100625.13;5025034;28;20125;-73
2022/07/25 09:34:37;;;;;;;4.55;2.60;;;;;;;27.29;43.34;100625.56;5061014;28;20377;-71
2022/07/25 09:37:04;;;;;;;6.13;2.80;;;;;;;27.19;43.50;100638.91;5061263;28;20039;-74
2022/07/25 09:39:45;;;;;;;3.33;2.35;;;;;;;27.19;44.12;100638.91;5063672;28;20060;-74
2022/07/25 09:42:22;;;;;;;3.85;2.22;;;;;;;27.01;44.14;100642.91;5044251;28;20036;-73
2022/07/25 09:45:11;;;;;;;6.88;2.28;;;;;;;27.15;44.07;100643.97;5060234;28;20024;-73
2022/07/25 09:47:49;;;;;;;3.80;2.10;;;;;;;27.19;43.12;100649.53;5058051;28;20091;-73
2022/07/25 09:50:16;;;;;;;5.57;2.88;;;;;;;27.38;42.98;100641.78;5040595;28;20037;-72
2022/07/25 09:52:42;;;;;;;3.70;2.60;;;;;;;27.36;43.52;100659.88;5030423;28;20035;-73
2022/07/25 09:55:09;;;;;;;5.85;2.65;;;;;;;27.66;42.93;100647.53;5064495;28;20029;-72
2022/07/25 09:57:36;;;;;;;4.45;2.63;;;;;;;28.07;42.43;100642.78;5026919;28;20039;-74
2022/07/25 10:00:03;;;;;;;8.55;2.92;;;;;;;28.19;43.42;100642.44;5039981;28;20059;-74
2022/07/25 10:02:53;;;;;;;4.68;2.42;;;;;;;28.35;42.12;100649.25;5059987;28;20040;-72
2022/07/25 10:05:43;;;;;;;3.33;2.72;;;;;;;28.32;41.87;100644.47;5057816;28;20050;-72
2022/07/25 10:08:10;;;;;;;4.32;2.90;;;;;;;28.06;42.35;100649.16;5059340;28;20024;-72
2022/07/25 10:10:40;;;;;;;4.50;2.47;;;;;;;28.06;43.18;100648.38;5060375;28;20068;-73
2022/07/25 10:13:14;;;;;;;4.28;2.38;;;;;;;28.13;42.28;100646.22;5041044;28;20967;-73
2022/07/25 10:15:51;;;;;;;8.35;2.60;;;;;;;28.25;43.06;100641.31;5041428;28;20051;-72
2022/07/25 10:18:20;;;;;;;6.97;2.47;;;;;;;28.23;42.82;100642.66;5045109;28;20074;-72
2022/07/25 10:20:48;;;;;;;5.97;2.50;;;;;;;28.36;42.70;100642.03;5061399;28;20032;-72
2022/07/25 10:23:27;;;;;;;2.72;2.08;;;;;;;28.80;41.63;100637.66;5039250;28;20032;-72
2022/07/25 10:26:06;;;;;;;4.75;2.55;;;;;;;29.02;41.41;100631.84;5055746;28;20022;-73
2022/07/25 10:28:40;;;;;;;3.65;2.60;;;;;;;29.37;40.77;100624.53;5058460;28;20039;-74
2022/07/25 10:31:27;;;;;;;4.72;2.40;;;;;;;29.66;39.74;100617.19;5040730;28;20060;-75
2022/07/25 10:33:56;;;;;;;10.20;2.00;;;;;;;29.69;38.67;100621.97;5056935;28;20347;-74
2022/07/25 10:36:22;;;;;;;4.38;2.13;;;;;;;29.84;38.12;100612.97;5059210;28;20444;-74
2022/07/25 10:38:52;;;;;;;5.90;2.08;;;;;;;29.46;38.76;100620.13;5057525;28;20029;-73
2022/07/25 10:41:22;;;;;;;3.63;2.00;;;;;;;29.06;38.11;100619.53;5040919;28;20159;-73
2022/07/25 10:43:49;;;;;;;5.07;2.65;;;;;;;29.14;38.63;100620.78;5043843;28;20029;-72
2022/07/25 10:46:21;;;;;;;6.72;2.13;;;;;;;29.59;38.43;100618.63;5039075;28;20776;-73
2022/07/25 10:49:00;;;;;;;2.75;2.33;;;;;;;29.48;38.53;100620.66;5057767;28;20033;-72
2022/07/25 10:51:28;;;;;;;3.30;2.08;;;;;;;29.85;39.09;100627.88;5058770;28;20739;-72
2022/07/25 10:53:54;;;;;;;3.85;2.47;;;;;;;29.75;38.23;100629.94;5041575;28;20178;-75
2022/07/25 10:56:22;;;;;;;4.63;2.13;;;;;;;29.83;39.58;100637.28;5059939;28;20040;-74
2022/07/25 10:58:54;;;;;;;4.38;2.30;;;;;;;29.79;39.80;100642.41;5042341;28;20033;-73
2022/07/25 11:01:41;;;;;;;3.83;2.10;;;;;;;29.79;38.90;100639.75;5058758;28;20665;-73
2022/07/25 11:04:14;;;;;;;2.78;2.50;;;;;;;29.82;39.51;100649.06;5043998;28;20081;-75
2022/07/25 11:06:41;;;;;;;4.55;2.75;;;;;;;29.80;39.86;100643.19;5062461;28;20036;-74
2022/07/25 11:09:36;;;;;;;3.90;2.10;;;;;;;29.67;40.58;100645.50;5046226;28;20035;-74
2022/07/25 11:12:02;;;;;;;9.48;2.75;;;;;;;29.85;39.46;100648.47;5040626;28;20044;-74
2022/07/25 11:14:31;;;;;;;4.40;2.90;;;;;;;29.97;38.91;100650.72;5034234;28;20131;-75
2022/07/25 11:17:21;;;;;;;8.05;2.25;;;;;;;30.38;39.08;100636.75;5061382;28;20020;-76
2022/07/25 11:20:06;;;;;;;4.28;2.28;;;;;;;30.43;39.11;100634.78;5069735;28;20033;-76
2022/07/25 11:22:33;;;;;;;3.97;2.42;;;;;;;30.70;38.37;100633.22;5059848;28;20091;-73
2022/07/25 11:24:59;;;;;;;7.93;2.55;;;;;;;30.74;37.90;100630.75;5067744;28;20071;-74